createdAt,value
2023-10-13T00:00:06.435Z,4.10
2023-10-13T00:01:06.471Z,4.00
2023-10-13T00:02:06.657Z,3.60
2023-10-13T00:03:06.408Z,3.60
2023-10-13T00:04:06.413Z,3.60
2023-10-13T00:05:06.303Z,3.80
2023-10-13T00:06:06.278Z,3.80
2023-10-13T00:07:06.286Z,3.60
2023-10-13T00:08:06.276Z,3.90
2023-10-13T00:09:06.207Z,3.70
2023-10-13T00:10:06.205Z,3.80
2023-10-13T00:11:06.351Z,3.80
2023-10-13T00:12:06.149Z,3.70
2023-10-13T00:13:06.126Z,3.70
2023-10-13T00:14:06.081Z,4.40
2023-10-13T00:15:06.060Z,4.20
2023-10-13T00:16:06.097Z,4.50
2023-10-13T00:17:06.193Z,4.20
2023-10-13T00:18:05.993Z,4.40
2023-10-13T00:19:05.968Z,4.00
2023-10-13T00:20:05.918Z,4.10
2023-10-13T00:21:05.901Z,4.20
2023-10-13T00:22:05.886Z,4.10
2023-10-13T00:23:05.846Z,4.00
2023-10-13T00:24:05.819Z,4.10
2023-10-13T00:25:05.800Z,4.50
2023-10-13T00:26:05.775Z,4.30
2023-10-13T00:27:05.750Z,4.20
2023-10-13T00:28:05.789Z,4.10
2023-10-13T00:29:05.693Z,4.40
2023-10-13T00:30:05.668Z,4.60
2023-10-13T00:31:05.678Z,4.00
2023-10-13T00:32:05.752Z,4.40
2023-10-13T00:33:05.665Z,4.10
2023-10-13T00:34:05.598Z,4.00
2023-10-13T00:35:05.546Z,4.10
2023-10-13T00:36:05.517Z,4.10
2023-10-13T00:37:05.522Z,4.00
2023-10-13T00:38:05.643Z,3.90
2023-10-13T00:39:05.443Z,4.10
2023-10-13T00:40:05.440Z,3.90
2023-10-13T00:41:05.392Z,4.00
2023-10-13T00:42:05.370Z,4.00
2023-10-13T00:43:05.362Z,3.50
2023-10-13T00:44:05.428Z,3.90
2023-10-13T00:45:05.316Z,4.30
2023-10-13T00:46:05.369Z,3.80
2023-10-13T00:47:05.302Z,3.90
2023-10-13T00:48:05.266Z,4.40
2023-10-13T00:49:05.225Z,4.20
2023-10-13T00:50:05.171Z,3.90
2023-10-13T00:51:05.138Z,4.40
2023-10-13T00:52:05.137Z,4.00
2023-10-13T00:53:05.091Z,3.80
2023-10-13T00:54:05.063Z,3.80
2023-10-13T00:55:05.048Z,4.10
2023-10-13T00:56:05.010Z,3.80
2023-10-13T00:57:05.016Z,4.00
2023-10-13T00:58:05.000Z,3.90
2023-10-13T00:59:04.937Z,3.80
2023-10-13T01:00:04.929Z,4.10
2023-10-13T01:01:04.923Z,4.00
2023-10-13T01:02:04.983Z,4.10
2023-10-13T01:03:04.858Z,4.00
2023-10-13T01:04:04.818Z,4.10
2023-10-13T01:05:04.849Z,3.90
2023-10-13T01:06:04.770Z,4.10
2023-10-13T01:07:04.762Z,4.30
2023-10-13T01:08:04.717Z,3.80
2023-10-13T01:09:04.693Z,4.00
2023-10-13T01:10:04.698Z,4.00
2023-10-13T01:11:04.643Z,4.30
2023-10-13T01:12:04.616Z,3.80
2023-10-13T01:13:04.615Z,3.80
2023-10-13T01:14:04.569Z,3.60
2023-10-13T01:15:04.549Z,3.90
2023-10-13T01:16:04.637Z,3.60
2023-10-13T01:17:04.558Z,4.00
2023-10-13T01:18:04.523Z,4.10
2023-10-13T01:19:04.472Z,3.80
2023-10-13T01:20:04.417Z,4.20
2023-10-13T01:21:04.391Z,4.10
2023-10-13T01:22:04.428Z,3.70
2023-10-13T01:23:04.345Z,4.40
2023-10-13T01:24:04.320Z,4.00
2023-10-13T01:25:04.304Z,3.80
2023-10-13T01:26:04.270Z,4.20
2023-10-13T01:27:04.248Z,4.00
2023-10-13T01:28:04.248Z,3.80
2023-10-13T01:29:04.189Z,3.80
2023-10-13T01:30:04.167Z,4.10
2023-10-13T01:31:04.171Z,4.30
2023-10-13T01:32:04.267Z,4.00
2023-10-13T01:33:04.205Z,4.10
2023-10-13T01:34:04.154Z,3.80
2023-10-13T01:35:04.044Z,3.80
2023-10-13T01:36:04.012Z,3.90
2023-10-13T01:37:04.024Z,4.10
2023-10-13T01:38:03.969Z,3.70
2023-10-13T01:39:03.935Z,3.70
2023-10-13T01:40:03.933Z,4.10
2023-10-13T01:41:03.877Z,3.90
2023-10-13T01:42:03.850Z,3.70
2023-10-13T01:43:03.841Z,3.80
2023-10-13T01:44:03.799Z,3.90
2023-10-13T01:45:03.770Z,3.90
2023-10-13T01:46:03.789Z,4.40
2023-10-13T01:47:03.718Z,4.30
2023-10-13T01:48:03.742Z,4.20
2023-10-13T01:49:03.731Z,3.50
2023-10-13T01:50:03.641Z,3.90
2023-10-13T01:51:03.617Z,3.90
2023-10-13T01:52:03.637Z,3.90
2023-10-13T01:53:03.570Z,3.70
2023-10-13T01:54:03.532Z,3.90
2023-10-13T01:55:03.570Z,3.80
2023-10-13T01:56:03.483Z,3.70
2023-10-13T01:57:03.468Z,3.90
2023-10-13T01:58:03.532Z,4.00
2023-10-13T01:59:03.410Z,4.00
2023-10-13T02:00:03.391Z,4.40
2023-10-13T02:01:03.368Z,4.10
2023-10-13T02:02:03.432Z,3.90
2023-10-13T02:03:03.417Z,4.30
2023-10-13T02:04:03.296Z,3.90
2023-10-13T02:05:03.289Z,3.50
2023-10-13T02:06:03.224Z,3.90
2023-10-13T02:07:03.213Z,4.20
2023-10-13T02:08:03.175Z,3.50
2023-10-13T02:09:03.148Z,3.90
2023-10-13T02:10:03.124Z,4.30
2023-10-13T02:11:03.100Z,3.40
2023-10-13T02:12:03.071Z,3.60
2023-10-13T02:13:03.045Z,4.00
2023-10-13T02:14:03.019Z,4.20
2023-10-13T02:15:02.992Z,3.70
2023-10-13T02:16:03.009Z,3.50
2023-10-13T02:17:02.974Z,3.60
2023-10-13T02:18:02.956Z,3.90
2023-10-13T02:19:02.895Z,3.90
2023-10-13T02:20:02.888Z,3.80
2023-10-13T02:21:02.842Z,3.50
2023-10-13T02:22:02.814Z,4.00
2023-10-13T02:23:02.794Z,4.00
2023-10-13T02:24:02.766Z,3.50
2023-10-13T02:25:03.175Z,3.70
2023-10-13T02:26:02.717Z,3.40
2023-10-13T02:27:02.688Z,3.80
2023-10-13T02:28:02.663Z,4.10
2023-10-13T02:29:02.681Z,3.60
2023-10-13T02:30:02.695Z,4.20
2023-10-13T02:31:02.727Z,3.60
2023-10-13T02:32:02.722Z,3.20
2023-10-13T02:33:02.674Z,3.80
2023-10-13T02:34:02.635Z,3.60
2023-10-13T02:35:02.615Z,3.90
2023-10-13T02:36:02.489Z,3.50
2023-10-13T02:37:02.430Z,4.00
2023-10-13T02:38:02.422Z,3.50
2023-10-13T02:39:02.377Z,4.00
2023-10-13T02:40:02.354Z,4.10
2023-10-13T02:41:02.325Z,3.90
2023-10-13T02:42:02.300Z,4.00
2023-10-13T02:43:02.294Z,4.00
2023-10-13T02:44:02.249Z,3.90
2023-10-13T02:45:02.230Z,3.80
2023-10-13T02:46:02.202Z,3.70
2023-10-13T02:47:02.267Z,3.50
2023-10-13T02:48:02.219Z,3.70
2023-10-13T02:49:02.131Z,4.10
2023-10-13T02:50:02.107Z,4.00
2023-10-13T02:51:02.080Z,4.20
2023-10-13T02:52:02.076Z,3.80
2023-10-13T02:53:02.022Z,4.00
2023-10-13T02:54:01.994Z,4.00
2023-10-13T02:55:01.983Z,4.00
2023-10-13T02:56:01.947Z,4.10
2023-10-13T02:57:01.924Z,4.00
2023-10-13T02:58:01.896Z,3.80
2023-10-13T02:59:01.873Z,4.40
2023-10-13T03:00:01.844Z,4.00
2023-10-13T03:01:01.900Z,4.50
2023-10-13T03:02:01.791Z,3.90
2023-10-13T03:03:01.880Z,3.40
2023-10-13T03:04:01.827Z,4.00
2023-10-13T03:05:01.756Z,4.10
2023-10-13T03:06:01.688Z,4.20
2023-10-13T03:07:01.661Z,4.40
2023-10-13T03:08:01.660Z,3.80
2023-10-13T03:09:01.610Z,3.80
2023-10-13T03:10:01.925Z,4.20
2023-10-13T03:11:01.561Z,4.30
2023-10-13T03:12:01.533Z,3.90
2023-10-13T03:13:01.507Z,3.90
2023-10-13T03:14:01.579Z,3.80
2023-10-13T03:15:01.456Z,4.40
2023-10-13T03:16:01.430Z,3.60
2023-10-13T03:17:01.485Z,4.00
2023-10-13T03:18:01.517Z,4.00
2023-10-13T03:19:01.384Z,4.20
2023-10-13T03:20:01.336Z,4.10
2023-10-13T03:21:01.300Z,4.30
2023-10-13T03:22:01.276Z,4.40
2023-10-13T03:23:01.249Z,4.20
2023-10-13T03:24:01.245Z,4.30
2023-10-13T03:25:01.229Z,4.20
2023-10-13T03:26:01.190Z,4.00
2023-10-13T03:27:01.148Z,3.90
2023-10-13T03:28:02.225Z,3.90
2023-10-13T03:29:01.093Z,4.00
2023-10-13T03:30:01.106Z,4.10
2023-10-13T03:31:01.098Z,4.30
2023-10-13T03:32:01.043Z,4.30
2023-10-13T03:33:01.063Z,4.40
2023-10-13T03:34:00.964Z,4.30
2023-10-13T03:35:00.944Z,4.20
2023-10-13T03:36:00.914Z,4.40
2023-10-13T03:37:00.886Z,4.50
2023-10-13T03:38:00.866Z,4.00
2023-10-13T03:39:00.833Z,4.90
2023-10-13T03:40:00.831Z,5.00
2023-10-13T03:41:00.786Z,4.50
2023-10-13T03:42:00.795Z,4.40
2023-10-13T03:43:00.730Z,4.70
2023-10-13T03:44:00.705Z,4.60
2023-10-13T03:45:00.678Z,5.10
2023-10-13T03:46:00.659Z,4.40
2023-10-13T03:47:00.631Z,4.80
2023-10-13T03:48:00.670Z,4.80
2023-10-13T03:49:00.614Z,4.90
2023-10-13T03:50:00.551Z,4.30
2023-10-13T03:51:00.525Z,4.70
2023-10-13T03:52:00.509Z,4.90
2023-10-13T03:53:00.488Z,5.00
2023-10-13T03:54:00.446Z,5.10
2023-10-13T03:55:00.419Z,5.50
2023-10-13T03:56:00.416Z,4.80
2023-10-13T03:57:00.367Z,5.40
2023-10-13T03:58:00.341Z,4.60
2023-10-13T03:59:00.317Z,4.60
2023-10-13T04:00:00.295Z,5.30
2023-10-13T04:01:00.278Z,4.60
2023-10-13T04:02:00.640Z,4.90
2023-10-13T04:03:00.413Z,4.70
2023-10-13T04:04:00.302Z,5.20
2023-10-13T04:05:00.250Z,4.80
2023-10-13T04:06:00.150Z,5.20
2023-10-13T04:07:00.109Z,5.10
2023-10-13T04:08:00.090Z,5.20
2023-10-13T04:09:00.055Z,4.80
2023-10-13T04:10:00.064Z,5.00
2023-10-13T04:11:00.016Z,5.10
2023-10-13T04:11:59.998Z,5.60
2023-10-13T04:12:59.956Z,5.00
2023-10-13T04:13:59.926Z,4.80
2023-10-13T04:14:59.899Z,5.00
2023-10-13T04:15:59.873Z,5.00
2023-10-13T04:16:59.949Z,4.90
2023-10-13T04:17:59.870Z,5.60
2023-10-13T04:18:59.794Z,5.00
2023-10-13T04:19:59.810Z,5.00
2023-10-13T04:20:59.741Z,5.00
2023-10-13T04:21:59.728Z,5.00
2023-10-13T04:22:59.691Z,4.90
2023-10-13T04:23:59.662Z,5.00
2023-10-13T04:24:59.645Z,4.80
2023-10-13T04:25:59.613Z,4.70
2023-10-13T04:26:59.585Z,5.20
2023-10-13T04:27:59.578Z,5.20
2023-10-13T04:28:59.534Z,5.10
2023-10-13T04:29:59.509Z,4.70
2023-10-13T04:30:59.981Z,4.90
2023-10-13T04:31:59.489Z,4.70
2023-10-13T04:32:59.485Z,5.60
2023-10-13T04:33:59.403Z,5.10
2023-10-13T04:34:59.376Z,4.80
2023-10-13T04:35:59.365Z,4.70
2023-10-13T04:36:59.322Z,4.60
2023-10-13T04:37:59.303Z,4.50
2023-10-13T04:38:59.290Z,4.70
2023-10-13T04:39:59.262Z,4.40
2023-10-13T04:40:59.219Z,5.00
2023-10-13T04:41:59.425Z,4.50
2023-10-13T04:42:59.168Z,4.80
2023-10-13T04:43:59.160Z,4.50
2023-10-13T04:44:59.114Z,3.90
2023-10-13T04:45:59.109Z,4.20
2023-10-13T04:46:59.163Z,4.30
2023-10-13T04:47:59.121Z,4.50
2023-10-13T04:48:59.098Z,4.50
2023-10-13T04:49:59.021Z,4.20
2023-10-13T04:50:58.957Z,4.60
2023-10-13T04:51:58.935Z,3.80
2023-10-13T04:52:58.903Z,4.40
2023-10-13T04:53:58.885Z,3.90
2023-10-13T04:54:58.852Z,4.20
2023-10-13T04:55:58.834Z,4.30
2023-10-13T04:56:58.799Z,4.10
2023-10-13T04:57:58.774Z,4.60
2023-10-13T04:58:58.753Z,4.40
2023-10-13T04:59:58.742Z,4.10
2023-10-13T05:00:58.704Z,3.90
2023-10-13T05:01:58.828Z,4.20
2023-10-13T05:02:58.717Z,4.60
2023-10-13T05:03:58.668Z,4.10
2023-10-13T05:04:58.633Z,4.10
2023-10-13T05:05:58.563Z,4.40
2023-10-13T05:06:58.535Z,4.00
2023-10-13T05:07:58.514Z,3.90
2023-10-13T05:08:58.482Z,4.10
2023-10-13T05:09:58.460Z,3.80
2023-10-13T05:10:58.430Z,4.00
2023-10-13T05:11:58.415Z,3.90
2023-10-13T05:12:58.381Z,4.30
2023-10-13T05:13:58.356Z,4.00
2023-10-13T05:14:58.335Z,4.10
2023-10-13T05:15:58.322Z,4.00
2023-10-13T05:16:58.457Z,4.20
2023-10-13T05:17:58.261Z,4.10
2023-10-13T05:18:58.220Z,4.50
2023-10-13T05:19:58.233Z,4.80
2023-10-13T05:20:58.181Z,4.60
2023-10-13T05:21:58.159Z,4.90
2023-10-13T05:22:58.117Z,4.90
2023-10-13T05:23:58.091Z,4.30
2023-10-13T05:24:58.070Z,4.70
2023-10-13T05:25:58.054Z,4.60
2023-10-13T05:26:58.011Z,4.80
2023-10-13T05:27:57.992Z,4.00
2023-10-13T05:28:57.984Z,4.10
2023-10-13T05:29:57.940Z,4.10
2023-10-13T05:30:57.911Z,4.10
2023-10-13T05:31:58.096Z,4.20
2023-10-13T05:32:57.903Z,4.20
2023-10-13T05:33:57.833Z,3.90
2023-10-13T05:34:57.802Z,3.70
2023-10-13T05:35:57.783Z,3.90
2023-10-13T05:36:57.759Z,4.30
2023-10-13T05:37:57.724Z,4.20
2023-10-13T05:38:57.697Z,4.30
2023-10-13T05:39:57.671Z,4.80
2023-10-13T05:40:57.651Z,4.90
2023-10-13T05:41:57.622Z,5.40
2023-10-13T05:42:57.593Z,5.30
2023-10-13T05:43:57.570Z,4.60
2023-10-13T05:44:57.570Z,4.60
2023-10-13T05:45:57.561Z,5.20
2023-10-13T05:46:57.546Z,4.70
2023-10-13T05:47:57.541Z,4.60
2023-10-13T05:48:57.453Z,4.70
2023-10-13T05:49:57.475Z,4.60
2023-10-13T05:50:57.383Z,4.80
2023-10-13T05:51:57.362Z,4.50
2023-10-13T05:52:57.391Z,4.80
2023-10-13T05:53:57.333Z,4.60
2023-10-13T05:54:57.278Z,4.70
2023-10-13T05:55:57.263Z,4.70
2023-10-13T05:56:57.274Z,4.60
2023-10-13T05:57:57.201Z,4.30
2023-10-13T05:59:00.264Z,4.20
2023-10-13T05:59:57.152Z,4.40
2023-10-13T06:00:57.120Z,4.90
2023-10-13T06:01:57.187Z,4.40
2023-10-13T06:02:57.138Z,4.70
2023-10-13T06:03:57.083Z,5.10
2023-10-13T06:04:57.066Z,4.30
2023-10-13T06:05:57.013Z,5.00
2023-10-13T06:06:56.994Z,4.80
2023-10-13T06:07:56.943Z,4.20
2023-10-13T06:08:56.909Z,4.90
2023-10-13T06:09:56.884Z,5.00
2023-10-13T06:10:56.870Z,4.70
2023-10-13T06:11:56.831Z,3.90
2023-10-13T06:12:56.814Z,4.80
2023-10-13T06:13:56.776Z,5.10
2023-10-13T06:14:56.779Z,4.80
2023-10-13T06:15:56.727Z,5.00
2023-10-13T06:16:56.782Z,4.70
2023-10-13T06:17:56.699Z,4.90
2023-10-13T06:18:56.646Z,5.00
2023-10-13T06:19:56.667Z,5.10
2023-10-13T06:20:56.599Z,5.10
2023-10-13T06:21:56.573Z,4.90
2023-10-13T06:22:56.542Z,4.80
2023-10-13T06:23:56.518Z,5.00
2023-10-13T06:24:56.493Z,5.10
2023-10-13T06:25:56.516Z,5.10
2023-10-13T06:26:56.437Z,5.20
2023-10-13T06:27:56.432Z,4.90
2023-10-13T06:28:56.456Z,5.00
2023-10-13T06:29:56.366Z,4.70
2023-10-13T06:30:56.338Z,5.20
2023-10-13T06:31:56.366Z,4.70
2023-10-13T06:32:56.374Z,5.20
2023-10-13T06:33:56.257Z,4.70
2023-10-13T06:34:56.227Z,4.80
2023-10-13T06:35:56.221Z,4.80
2023-10-13T06:36:56.178Z,5.20
2023-10-13T06:37:56.207Z,5.00
2023-10-13T06:38:56.478Z,4.60
2023-10-13T06:39:56.096Z,5.20
2023-10-13T06:40:56.083Z,5.20
2023-10-13T06:41:56.057Z,5.50
2023-10-13T06:42:56.021Z,5.20
2023-10-13T06:43:56.032Z,5.90
2023-10-13T06:44:55.971Z,4.90
2023-10-13T06:45:55.986Z,5.30
2023-10-13T06:46:55.972Z,5.00
2023-10-13T06:47:55.904Z,4.70
2023-10-13T06:48:55.859Z,4.90
2023-10-13T06:49:55.963Z,5.70
2023-10-13T06:50:55.809Z,5.10
2023-10-13T06:51:55.808Z,6.00
2023-10-13T06:52:55.767Z,5.40
2023-10-13T06:53:55.732Z,5.10
2023-10-13T06:54:55.704Z,5.30
2023-10-13T06:55:55.680Z,5.50
2023-10-13T06:56:55.650Z,5.40
2023-10-13T06:57:55.626Z,5.70
2023-10-13T06:58:55.660Z,5.80
2023-10-13T06:59:55.575Z,5.10
2023-10-13T07:00:55.551Z,5.20
2023-10-13T07:01:55.679Z,5.10
2023-10-13T07:02:55.698Z,5.40
2023-10-13T07:03:55.598Z,5.70
2023-10-13T07:04:55.600Z,4.90
2023-10-13T07:05:55.485Z,5.10
2023-10-13T07:06:55.391Z,5.40
2023-10-13T07:07:55.412Z,4.70
2023-10-13T07:08:55.339Z,5.20
2023-10-13T07:09:55.315Z,5.70
2023-10-13T07:10:55.366Z,5.00
2023-10-13T07:11:55.262Z,4.90
2023-10-13T07:12:55.237Z,5.10
2023-10-13T07:13:55.245Z,5.30
2023-10-13T07:14:55.185Z,5.40
2023-10-13T07:15:55.168Z,5.80
2023-10-13T07:16:55.151Z,5.80
2023-10-13T07:17:55.233Z,6.00
2023-10-13T07:18:55.082Z,5.70
2023-10-13T07:19:55.098Z,5.10
2023-10-13T07:20:55.037Z,5.50
2023-10-13T07:21:55.006Z,6.20
2023-10-13T07:22:55.044Z,5.40
2023-10-13T07:23:54.971Z,5.50
2023-10-13T07:24:54.930Z,5.50
2023-10-13T07:25:54.928Z,6.70
2023-10-13T07:26:54.877Z,5.10
2023-10-13T07:27:54.863Z,5.90
2023-10-13T07:28:54.872Z,5.50
2023-10-13T07:29:54.799Z,5.10
2023-10-13T07:30:54.773Z,6.30
2023-10-13T07:31:54.844Z,5.60
2023-10-13T07:32:54.762Z,5.70
2023-10-13T07:33:54.696Z,6.10
2023-10-13T07:34:54.706Z,6.10
2023-10-13T07:35:54.645Z,5.30
2023-10-13T07:36:54.620Z,6.00
2023-10-13T07:37:54.635Z,6.00
2023-10-13T07:39:10.005Z,5.50
2023-10-13T07:39:54.570Z,5.60
2023-10-13T07:40:54.575Z,5.30
2023-10-13T07:41:54.491Z,5.40
2023-10-13T07:42:54.467Z,5.90
2023-10-13T07:43:54.481Z,5.60
2023-10-13T07:44:54.420Z,5.10
2023-10-13T07:45:54.407Z,5.80
2023-10-13T07:46:54.398Z,5.40
2023-10-13T07:47:54.494Z,5.00
2023-10-13T07:48:54.316Z,5.20
2023-10-13T07:49:54.349Z,5.50
2023-10-13T07:50:54.263Z,5.20
2023-10-13T07:51:54.237Z,5.20
2023-10-13T07:52:54.236Z,5.40
2023-10-13T07:53:54.203Z,5.50
2023-10-13T07:54:54.161Z,5.30
2023-10-13T07:55:54.258Z,5.60
2023-10-13T07:56:54.131Z,5.80
2023-10-13T07:57:54.103Z,5.10
2023-10-13T07:58:54.299Z,4.90
2023-10-13T07:59:54.038Z,5.50
2023-10-13T08:00:54.017Z,5.30
2023-10-13T08:01:54.063Z,4.40
2023-10-13T08:02:54.053Z,4.80
2023-10-13T08:03:54.014Z,4.50
2023-10-13T08:04:53.964Z,4.50
2023-10-13T08:05:53.888Z,4.80
2023-10-13T08:06:53.863Z,5.00
2023-10-13T08:07:53.889Z,5.40
2023-10-13T08:08:53.807Z,4.70
2023-10-13T08:09:53.782Z,4.60
2023-10-13T08:10:53.785Z,4.80
2023-10-13T08:11:53.749Z,4.70
2023-10-13T08:12:53.708Z,4.30
2023-10-13T08:14:04.243Z,4.90
2023-10-13T08:14:53.693Z,5.30
2023-10-13T08:15:53.660Z,4.80
2023-10-13T08:16:53.874Z,5.50
2023-10-13T08:17:53.625Z,5.10
2023-10-13T08:18:53.558Z,5.00
2023-10-13T08:19:53.575Z,4.50
2023-10-13T08:20:53.560Z,4.90
2023-10-13T08:21:53.482Z,5.30
2023-10-13T08:22:53.488Z,5.10
2023-10-13T08:23:53.431Z,4.80
2023-10-13T08:24:53.416Z,5.30
2023-10-13T08:25:53.427Z,5.20
2023-10-13T08:26:53.379Z,5.20
2023-10-13T08:27:53.352Z,5.30
2023-10-13T08:28:57.966Z,4.80
2023-10-13T08:29:53.283Z,5.00
2023-10-13T08:30:53.264Z,5.10
2023-10-13T08:31:53.292Z,4.90
2023-10-13T08:32:53.237Z,4.90
2023-10-13T08:33:53.184Z,4.90
2023-10-13T08:34:53.167Z,4.50
2023-10-13T08:35:53.134Z,4.60
2023-10-13T08:36:53.119Z,4.60
2023-10-13T08:37:53.162Z,4.90
2023-10-13T08:38:53.110Z,4.20
2023-10-13T08:39:53.036Z,5.00
2023-10-13T08:40:53.013Z,4.70
2023-10-13T08:41:53.002Z,4.50
2023-10-13T08:42:52.970Z,4.30
2023-10-13T08:43:53.689Z,4.20
2023-10-13T08:44:52.939Z,4.20
2023-10-13T08:45:52.925Z,3.70
2023-10-13T08:46:52.937Z,3.80
2023-10-13T08:47:52.857Z,4.20
2023-10-13T08:48:52.819Z,4.10
2023-10-13T08:49:52.813Z,3.70
2023-10-13T08:50:52.825Z,3.60
2023-10-13T08:51:52.738Z,3.60
2023-10-13T08:52:52.824Z,3.30
2023-10-13T08:53:52.692Z,3.80
2023-10-13T08:54:52.688Z,3.60
2023-10-13T08:55:52.665Z,4.10
2023-10-13T08:56:52.617Z,4.30
2023-10-13T08:57:52.635Z,3.90
2023-10-13T08:58:52.625Z,3.50
2023-10-13T08:59:52.563Z,3.90
2023-10-13T09:00:52.573Z,3.70
2023-10-13T09:01:52.654Z,3.90
2023-10-13T09:02:52.511Z,4.30
2023-10-13T09:03:52.456Z,3.60
2023-10-13T09:04:52.444Z,3.60
2023-10-13T09:05:52.405Z,4.00
2023-10-13T09:06:52.372Z,4.00
2023-10-13T09:08:02.618Z,3.80
2023-10-13T09:08:52.325Z,4.10
2023-10-13T09:09:52.369Z,4.10
2023-10-13T09:10:52.347Z,4.00
2023-10-13T09:11:52.251Z,3.80
2023-10-13T09:12:52.233Z,4.10
2023-10-13T09:13:52.252Z,4.40
2023-10-13T09:14:52.179Z,3.60
2023-10-13T09:15:52.190Z,4.30
2023-10-13T09:16:52.189Z,3.30
2023-10-13T09:17:52.202Z,3.70
2023-10-13T09:18:52.080Z,4.10
2023-10-13T09:19:52.081Z,4.00
2023-10-13T09:20:52.032Z,4.00
2023-10-13T09:21:52.009Z,4.30
2023-10-13T09:22:52.009Z,4.50
2023-10-13T09:23:51.958Z,4.50
2023-10-13T09:24:51.936Z,3.90
2023-10-13T09:25:51.944Z,4.30
2023-10-13T09:26:51.887Z,3.90
2023-10-13T09:27:51.861Z,4.10
2023-10-13T09:28:51.994Z,3.60
2023-10-13T09:29:51.814Z,3.60
2023-10-13T09:30:51.805Z,3.40
2023-10-13T09:31:51.895Z,3.50
2023-10-13T09:32:51.769Z,3.70
2023-10-13T09:33:51.747Z,3.20
2023-10-13T09:34:51.742Z,3.90
2023-10-13T09:35:51.681Z,3.60
2023-10-13T09:36:51.649Z,3.50
2023-10-13T09:37:51.692Z,3.50
2023-10-13T09:38:51.599Z,3.30
2023-10-13T09:39:51.575Z,3.20
2023-10-13T09:40:51.607Z,3.40
2023-10-13T09:41:51.529Z,3.60
2023-10-13T09:42:51.507Z,3.60
2023-10-13T09:43:51.557Z,4.10
2023-10-13T09:44:51.508Z,3.70
2023-10-13T09:45:51.432Z,3.50
2023-10-13T09:46:51.458Z,3.40
2023-10-13T09:47:51.506Z,3.60
2023-10-13T09:48:51.368Z,3.60
2023-10-13T09:49:51.393Z,3.80
2023-10-13T09:50:51.346Z,3.40
2023-10-13T09:51:51.288Z,3.50
2023-10-13T09:52:51.321Z,3.50
2023-10-13T09:54:16.499Z,3.30
2023-10-13T09:54:51.511Z,3.50
2023-10-13T09:55:51.225Z,3.40
2023-10-13T09:56:51.170Z,3.00
2023-10-13T09:57:51.145Z,3.50
2023-10-13T09:58:51.212Z,3.20
2023-10-13T09:59:51.100Z,3.50
2023-10-13T10:00:51.180Z,3.30
2023-10-13T10:01:51.102Z,3.40
2023-10-13T10:02:51.064Z,3.40
2023-10-13T10:03:51.050Z,3.40
2023-10-13T10:04:51.017Z,3.20
2023-10-13T10:05:51.097Z,3.40
2023-10-13T10:06:50.935Z,3.30
2023-10-13T10:07:50.960Z,3.30
2023-10-13T10:08:50.892Z,3.60
2023-10-13T10:09:50.866Z,3.00
2023-10-13T10:10:50.874Z,3.20
2023-10-13T10:11:50.820Z,3.00
2023-10-13T10:12:50.808Z,3.30
2023-10-13T10:13:50.791Z,3.20
2023-10-13T10:14:50.749Z,3.60
2023-10-13T10:15:50.774Z,3.20
2023-10-13T10:16:50.757Z,3.00
2023-10-13T10:17:50.695Z,3.40
2023-10-13T10:18:50.660Z,3.30
2023-10-13T10:19:50.680Z,2.80
2023-10-13T10:20:50.614Z,2.90
2023-10-13T10:21:50.582Z,3.30
2023-10-13T10:22:50.611Z,3.20
2023-10-13T10:23:50.538Z,3.70
2023-10-13T10:24:50.515Z,3.30
2023-10-13T10:25:50.520Z,3.70
2023-10-13T10:26:50.472Z,3.40
2023-10-13T10:27:50.443Z,3.70
2023-10-13T10:28:50.568Z,3.60
2023-10-13T10:29:50.398Z,3.50
2023-10-13T10:30:50.393Z,3.60
2023-10-13T10:31:50.451Z,3.70
2023-10-13T10:32:50.396Z,3.50
2023-10-13T10:33:50.305Z,3.20
2023-10-13T10:34:50.358Z,3.40
2023-10-13T10:35:50.280Z,3.20
2023-10-13T10:36:50.237Z,3.20
2023-10-13T10:37:50.299Z,3.30
2023-10-13T10:38:50.193Z,3.30
2023-10-13T10:39:50.167Z,3.50
2023-10-13T10:40:50.196Z,3.20
2023-10-13T10:41:50.122Z,3.60
2023-10-13T10:42:50.102Z,3.40
2023-10-13T10:43:50.113Z,3.30
2023-10-13T10:44:50.053Z,3.40
2023-10-13T10:45:50.032Z,3.20
2023-10-13T10:46:50.077Z,3.40
2023-10-13T10:47:50.116Z,3.20
2023-10-13T10:48:49.969Z,3.40
2023-10-13T10:49:49.968Z,3.50
2023-10-13T10:50:49.916Z,3.20
2023-10-13T10:51:49.910Z,3.70
2023-10-13T10:52:50.011Z,3.40
2023-10-13T10:53:49.898Z,3.30
2023-10-13T10:54:49.846Z,3.50
2023-10-13T10:55:49.849Z,3.40
2023-10-13T10:56:49.787Z,3.80
2023-10-13T10:57:49.764Z,3.30
2023-10-13T10:58:49.988Z,3.60
2023-10-13T10:59:49.713Z,3.30
2023-10-13T11:00:49.700Z,3.40
2023-10-13T11:01:49.720Z,3.00
2023-10-13T11:02:49.729Z,3.20
2023-10-13T11:03:49.690Z,3.20
2023-10-13T11:04:49.677Z,3.10
2023-10-13T11:05:49.576Z,3.20
2023-10-13T11:06:49.574Z,3.20
2023-10-13T11:07:49.588Z,3.30
2023-10-13T11:08:49.507Z,3.50
2023-10-13T11:09:49.485Z,3.30
2023-10-13T11:10:49.533Z,3.70
2023-10-13T11:11:49.439Z,3.50
2023-10-13T11:12:49.418Z,3.50
2023-10-13T11:13:49.484Z,3.20
2023-10-13T11:14:49.385Z,3.30
2023-10-13T11:15:49.350Z,3.50
2023-10-13T11:16:49.428Z,3.50
2023-10-13T11:17:49.391Z,3.50
2023-10-13T11:18:49.428Z,3.00
2023-10-13T11:19:49.359Z,3.30
2023-10-13T11:20:49.238Z,3.00
2023-10-13T11:21:49.215Z,2.90
2023-10-13T11:22:49.289Z,2.90
2023-10-13T11:23:49.193Z,2.90
2023-10-13T11:24:49.147Z,3.30
2023-10-13T11:25:49.165Z,3.20
2023-10-13T11:26:49.148Z,3.30
2023-10-13T11:27:49.220Z,3.10
2023-10-13T11:28:49.093Z,2.90
2023-10-13T11:29:49.036Z,2.90
2023-10-13T11:30:49.046Z,3.30
2023-10-13T11:31:49.042Z,2.80
2023-10-13T11:32:49.004Z,3.10
2023-10-13T11:33:48.984Z,2.80
2023-10-13T11:34:48.947Z,2.70
2023-10-13T11:35:48.907Z,3.10
2023-10-13T11:36:48.880Z,3.20
2023-10-13T11:37:48.879Z,3.20
2023-10-13T11:38:48.836Z,3.10
2023-10-13T11:39:48.839Z,3.40
2023-10-13T11:40:48.820Z,3.10
2023-10-13T11:41:48.769Z,3.40
2023-10-13T11:42:48.743Z,2.90
2023-10-13T11:43:48.795Z,3.00
2023-10-13T11:44:48.700Z,3.30
2023-10-13T11:45:48.680Z,3.10
2023-10-13T11:46:48.723Z,2.80
2023-10-13T11:47:48.755Z,3.00
2023-10-13T11:48:48.613Z,3.00
2023-10-13T11:49:48.650Z,2.90
2023-10-13T11:50:48.585Z,2.80
2023-10-13T11:51:48.548Z,3.00
2023-10-13T11:52:48.534Z,3.10
2023-10-13T11:53:48.505Z,3.40
2023-10-13T11:54:48.990Z,3.20
2023-10-13T11:55:48.495Z,3.40
2023-10-13T11:56:48.441Z,3.00
2023-10-13T11:57:48.417Z,2.80
2023-10-13T11:58:48.439Z,3.10
2023-10-13T11:59:48.372Z,3.20
2023-10-13T12:00:48.361Z,3.00
2023-10-13T12:01:48.423Z,3.30
2023-10-13T12:02:48.463Z,3.10
2023-10-13T12:03:48.330Z,3.30
2023-10-13T12:04:48.412Z,3.40
2023-10-13T12:05:48.244Z,2.80
2023-10-13T12:06:48.217Z,3.00
2023-10-13T12:07:48.274Z,2.80
2023-10-13T12:08:48.175Z,3.10
2023-10-13T12:09:48.164Z,3.20
2023-10-13T12:10:48.177Z,3.30
2023-10-13T12:11:48.130Z,3.10
2023-10-13T12:12:48.097Z,3.20
2023-10-13T12:13:48.124Z,3.10
2023-10-13T12:14:48.043Z,3.30
2023-10-13T12:15:48.048Z,3.20
2023-10-13T12:16:48.048Z,3.20
2023-10-13T12:17:48.125Z,3.30
2023-10-13T12:18:47.957Z,3.00
2023-10-13T12:19:47.992Z,2.70
2023-10-13T12:20:47.914Z,3.00
2023-10-13T12:21:47.894Z,3.00
2023-10-13T12:22:47.891Z,3.10
2023-10-13T12:23:47.847Z,3.10
2023-10-13T12:24:47.825Z,3.10
2023-10-13T12:25:47.832Z,3.00
2023-10-13T12:26:47.782Z,3.10
2023-10-13T12:27:47.786Z,3.10
2023-10-13T12:28:47.753Z,3.00
2023-10-13T12:29:47.744Z,3.40
2023-10-13T12:30:47.713Z,2.80
2023-10-13T12:31:47.694Z,3.10
2023-10-13T12:32:47.688Z,3.30
2023-10-13T12:33:47.634Z,3.00
2023-10-13T12:34:47.796Z,3.30
2023-10-13T12:35:47.620Z,3.10
2023-10-13T12:36:47.580Z,3.30
2023-10-13T12:37:47.582Z,3.00
2023-10-13T12:38:47.536Z,3.00
2023-10-13T12:39:47.501Z,2.90
2023-10-13T12:40:47.513Z,3.20
2023-10-13T12:41:47.463Z,3.10
2023-10-13T12:42:47.436Z,3.20
2023-10-13T12:43:47.542Z,3.20
2023-10-13T12:44:50.081Z,3.20
2023-10-13T12:45:47.373Z,3.50
2023-10-13T12:46:47.492Z,3.30
2023-10-13T12:47:47.530Z,2.90
2023-10-13T12:48:47.366Z,3.00
2023-10-13T12:49:47.326Z,3.20
2023-10-13T12:50:47.263Z,3.10
2023-10-13T12:51:47.244Z,3.10
2023-10-13T12:52:47.323Z,3.20
2023-10-13T12:53:47.199Z,2.80
2023-10-13T12:54:47.178Z,3.10
2023-10-13T12:55:47.178Z,3.30
2023-10-13T12:56:47.135Z,3.00
2023-10-13T12:57:47.114Z,2.90
2023-10-13T12:58:47.127Z,2.90
2023-10-13T12:59:47.191Z,2.80
2023-10-13T13:00:47.160Z,3.10
2023-10-13T13:01:47.206Z,2.60
2023-10-13T13:02:47.183Z,2.90
2023-10-13T13:03:47.049Z,3.00
2023-10-13T13:04:47.041Z,2.70
2023-10-13T13:05:46.945Z,3.10
2023-10-13T13:06:47.025Z,3.10
2023-10-13T13:07:46.917Z,3.30
2023-10-13T13:08:46.902Z,3.40
2023-10-13T13:09:46.860Z,3.20
2023-10-13T13:10:46.873Z,3.30
2023-10-13T13:11:46.817Z,3.00
2023-10-13T13:12:46.821Z,3.10
2023-10-13T13:13:46.827Z,2.70
2023-10-13T13:14:46.754Z,2.70
2023-10-13T13:15:46.773Z,3.00
2023-10-13T13:16:46.811Z,2.70
2023-10-13T13:17:46.780Z,2.90